Time;durP1;ratioP1;P1;durP2;ratioP2;P2;SDS_P1;SDS_P2;PMS_P1;PMS_P2;Temp;Humidity;BMP_temperature;BMP_pressure;BME280_temperature;BME280_humidity;BME280_pressure;Samples;Min_cycle;Max_cycle;Signal;HPM_P1;HPM_P2
2024/01/19 00:00:09;;;;;;;2.95;0.35;;;1.00;99.90;;;;;;5071339;28;20119;-80
2024/01/19 00:02:35;;;;;;;3.55;0.70;;;1.00;99.90;;;;;;5071047;28;20518;-75
2024/01/19 00:05:01;;;;;;;1.98;0.43;;;1.00;99.90;;;;;;5071016;28;20051;-74
2024/01/19 00:07:26;;;;;;;5.43;1.08;;;0.90;99.90;;;;;;5071377;28;20546;-75
2024/01/19 00:09:52;;;;;;;11.75;2.55;;;0.80;99.90;;;;;;5071120;28;20135;-82
2024/01/19 00:12:18;;;;;;;3.08;0.50;;;0.80;99.90;;;;;;5071051;28;20143;-78
2024/01/19 00:14:43;;;;;;;4.88;0.38;;;0.90;99.90;;;;;;5071196;28;20460;-74
2024/01/19 00:17:09;;;;;;;2.30;0.50;;;0.90;99.90;;;;;;5069421;28;20060;-74
2024/01/19 00:19:35;;;;;;;2.17;0.60;;;0.90;99.90;;;;;;5052814;28;20055;-74
2024/01/19 00:22:01;;;;;;;4.55;0.63;;;0.90;99.90;;;;;;5052636;28;20087;-78
2024/01/19 00:24:26;;;;;;;1.30;0.60;;;0.90;99.90;;;;;;5070918;28;20412;-77
2024/01/19 00:26:54;;;;;;;3.03;1.08;;;0.90;99.90;;;;;;5070789;28;20091;-77
2024/01/19 00:29:19;;;;;;;2.33;0.45;;;1.00;99.90;;;;;;5070989;28;20135;-73
2024/01/19 00:31:46;;;;;;;3.30;0.90;;;1.00;99.90;;;;;;5071130;28;20136;-83
2024/01/19 00:34:16;;;;;;;10.43;3.10;;;1.00;99.90;;;;;;5070846;28;20045;-79
2024/01/19 00:36:42;;;;;;;5.68;0.80;;;1.10;99.90;;;;;;5069382;28;20504;-81
2024/01/19 00:39:08;;;;;;;6.15;1.23;;;1.10;99.90;;;;;;5070375;28;20492;-78
2024/01/19 00:41:34;;;;;;;4.65;0.82;;;1.10;99.90;;;;;;5069150;28;20055;-77
2024/01/19 00:44:00;;;;;;;5.93;2.05;;;1.00;99.90;;;;;;5071124;28;20052;-82
2024/01/19 00:46:27;;;;;;;7.63;1.23;;;1.00;99.90;;;;;;5071496;28;20132;-80
2024/01/19 00:48:52;;;;;;;6.43;0.80;;;0.90;99.90;;;;;;5073315;28;20048;-81
2024/01/19 00:51:18;;;;;;;3.10;0.85;;;0.80;99.90;;;;;;5090177;28;20067;-82
2024/01/19 00:53:44;;;;;;;6.97;0.80;;;0.80;99.90;;;;;;5074572;28;20048;-75
2024/01/19 00:56:10;;;;;;;2.95;0.70;;;0.80;99.90;;;;;;5072736;28;20048;-80
2024/01/19 00:58:37;;;;;;;5.75;1.33;;;0.80;99.90;;;;;;5073303;28;20483;-77
2024/01/19 01:01:04;;;;;;;8.98;1.10;;;0.70;99.90;;;;;;5073136;28;20053;-81
2024/01/19 01:03:30;;;;;;;13.82;2.30;;;0.70;99.90;;;;;;5089647;28;20056;-83
2024/01/19 01:05:57;;;;;;;13.98;2.28;;;0.70;99.90;;;;;;5074162;28;20166;-82
2024/01/19 01:08:25;;;;;;;31.05;3.50;;;0.80;99.90;;;;;;5074373;28;20041;-82
2024/01/19 01:10:51;;;;;;;8.95;0.82;;;0.90;99.90;;;;;;5072742;28;20052;-82
2024/01/19 01:13:17;;;;;;;4.75;1.60;;;1.20;99.90;;;;;;5074258;28;20056;-79
2024/01/19 01:15:43;;;;;;;2.92;0.60;;;1.40;99.90;;;;;;5072727;28;20063;-82
2024/01/19 01:18:08;;;;;;;3.08;0.63;;;1.40;99.90;;;;;;5074272;28;20083;-82
2024/01/19 01:20:34;;;;;;;1.85;0.82;;;1.50;99.90;;;;;;5074849;28;20500;-80
2024/01/19 01:23:00;;;;;;;1.80;0.38;;;1.60;99.90;;;;;;5073855;28;20051;-75
2024/01/19 01:25:25;;;;;;;7.93;1.45;;;1.60;99.90;;;;;;5056211;28;20126;-83
2024/01/19 01:27:51;;;;;;;4.07;0.75;;;1.60;99.90;;;;;;5074409;28;20510;-81
2024/01/19 01:30:17;;;;;;;10.13;1.35;;;1.60;99.90;;;;;;5073790;28;20481;-82
2024/01/19 01:32:42;;;;;;;16.70;2.35;;;1.70;99.90;;;;;;5073777;28;20098;-76
2024/01/19 01:35:08;;;;;;;9.18;1.70;;;1.60;99.90;;;;;;5073673;28;20049;-82
2024/01/19 01:37:34;;;;;;;5.15;1.90;;;1.60;99.90;;;;;;5072513;28;20121;-76
2024/01/19 01:40:00;;;;;;;7.72;1.17;;;1.60;99.90;;;;;;5072254;28;20059;-82
2024/01/19 01:42:25;;;;;;;8.60;0.93;;;1.50;99.90;;;;;;5072209;28;20092;-78
2024/01/19 01:44:51;;;;;;;7.70;1.35;;;1.50;99.90;;;;;;5073628;28;20070;-80
2024/01/19 01:47:17;;;;;;;8.95;1.25;;;1.50;99.90;;;;;;5072331;28;20484;-82
2024/01/19 01:49:42;;;;;;;21.85;2.88;;;1.60;99.90;;;;;;5073609;28;20049;-81
2024/01/19 01:52:10;;;;;;;13.82;2.38;;;1.50;99.90;;;;;;5072255;28;20127;-79
2024/01/19 01:54:36;;;;;;;6.43;1.02;;;1.50;99.90;;;;;;5073718;28;20462;-80
2024/01/19 01:57:02;;;;;;;10.00;1.75;;;1.60;99.90;;;;;;5072058;28;20048;-79
2024/01/19 01:59:29;;;;;;;7.88;1.38;;;1.70;99.90;;;;;;5072414;28;20515;-81
2024/01/19 02:01:55;;;;;;;8.32;1.10;;;1.80;99.90;;;;;;5072458;28;20056;-79
2024/01/19 02:04:24;;;;;;;13.45;2.70;;;1.80;99.90;;;;;;5072931;28;20397;-78
2024/01/19 02:06:49;;;;;;;16.40;1.83;;;1.90;99.90;;;;;;5073655;28;20053;-82
2024/01/19 02:09:16;;;;;;;9.77;1.60;;;1.80;99.90;;;;;;5072454;28;20122;-81
2024/01/19 02:11:42;;;;;;;12.48;2.08;;;1.80;99.90;;;;;;5073459;28;20059;-79
2024/01/19 02:14:09;;;;;;;7.03;2.53;;;1.80;99.90;;;;;;5071659;28;20052;-78
2024/01/19 02:16:35;;;;;;;9.32;1.10;;;1.70;99.90;;;;;;5073383;28;20397;-80
2024/01/19 02:19:01;;;;;;;14.18;3.17;;;1.70;99.90;;;;;;5071619;28;20056;-79
2024/01/19 02:21:27;;;;;;;11.07;2.05;;;1.80;99.90;;;;;;5088459;28;20051;-82
2024/01/19 02:24:04;;;;;;;13.02;1.73;;;1.70;99.90;;;;;;5073131;28;20550;-84
2024/01/19 02:26:32;;;;;;;9.38;2.50;;;1.70;99.90;;;;;;5073090;28;20056;-82
2024/01/19 02:28:59;;;;;;;12.93;2.38;;;1.80;99.90;;;;;;5071200;28;20044;-81
2024/01/19 02:31:24;;;;;;;8.90;1.25;;;1.90;99.90;;;;;;5073023;28;20057;-82
2024/01/19 02:33:50;;;;;;;5.22;1.30;;;2.00;99.90;;;;;;5072766;28;20048;-81
2024/01/19 02:36:16;;;;;;;10.90;1.52;;;2.00;99.90;;;;;;5071630;28;20515;-83
2024/01/19 02:38:41;;;;;;;9.38;1.48;;;2.10;99.90;;;;;;5073036;28;20507;-81
2024/01/19 02:41:07;;;;;;;12.98;1.75;;;2.10;99.90;;;;;;5070887;28;20052;-82
2024/01/19 02:43:33;;;;;;;9.32;1.35;;;2.10;99.90;;;;;;5072570;28;20044;-82
2024/01/19 02:45:58;;;;;;;8.20;1.20;;;2.10;99.90;;;;;;5072545;28;20048;-80
2024/01/19 02:48:24;;;;;;;16.13;2.25;;;2.10;99.90;;;;;;5072415;28;20059;-81
2024/01/19 02:50:51;;;;;;;18.75;2.83;;;2.20;99.90;;;;;;5070584;28;20052;-81
2024/01/19 02:53:17;;;;;;;8.55;1.52;;;2.20;99.90;;;;;;5072072;28;20416;-79
2024/01/19 02:55:42;;;;;;;8.43;1.50;;;2.30;99.90;;;;;;5087883;28;20045;-80
2024/01/19 02:58:08;;;;;;;9.93;1.75;;;2.30;99.90;;;;;;5087958;28;20060;-81
2024/01/19 03:00:34;;;;;;;13.00;2.58;;;2.40;99.90;;;;;;5070872;28;20441;-83
2024/01/19 03:02:59;;;;;;;7.60;1.65;;;2.40;99.90;;;;;;5071935;28;20534;-81
2024/01/19 03:05:25;;;;;;;6.93;1.30;;;2.50;99.90;;;;;;5072077;28;20048;-83
2024/01/19 03:07:51;;;;;;;12.05;1.80;;;2.50;99.90;;;;;;5071930;28;20084;-80
2024/01/19 03:10:16;;;;;;;11.50;2.22;;;2.60;99.90;;;;;;5070287;28;20060;-82
2024/01/19 03:12:42;;;;;;;13.15;1.77;;;2.60;99.90;;;;;;5070290;28;20056;-79
2024/01/19 03:15:08;;;;;;;14.50;2.05;;;2.70;99.90;;;;;;5070696;28;20450;-82
2024/01/19 03:17:34;;;;;;;7.50;1.55;;;2.60;99.90;;;;;;5071711;28;20053;-81
2024/01/19 03:19:59;;;;;;;11.80;2.22;;;2.60;99.90;;;;;;5070717;28;20123;-81
2024/01/19 03:22:26;;;;;;;5.30;1.08;;;2.50;99.90;;;;;;5071813;28;20064;-79
2024/01/19 03:24:52;;;;;;;11.80;1.58;;;2.50;99.90;;;;;;5070394;28;20545;-79
2024/01/19 03:27:18;;;;;;;7.47;1.55;;;2.40;99.90;;;;;;5071471;28;20139;-81
2024/01/19 03:29:44;;;;;;;13.93;1.75;;;2.40;99.90;;;;;;5071448;28;20095;-81
2024/01/19 03:32:10;;;;;;;8.73;1.88;;;2.30;99.90;;;;;;5070321;28;20041;-82
2024/01/19 03:34:36;;;;;;;10.68;2.13;;;2.30;99.90;;;;;;5071733;28;20063;-75
2024/01/19 03:37:03;;;;;;;11.85;1.60;;;2.20;99.90;;;;;;5071368;28;20040;-82
2024/01/19 03:39:33;;;;;;;14.48;3.00;;;2.10;99.90;;;;;;5073234;28;20056;-82
2024/01/19 03:42:01;;;;;;;11.57;1.67;;;2.10;99.90;;;;;;5091637;28;20080;-81
2024/01/19 03:44:27;;;;;;;7.60;1.38;;;2.00;99.90;;;;;;5056418;28;20052;-80
2024/01/19 03:46:53;;;;;;;20.90;2.17;;;2.00;99.90;;;;;;5091293;28;20051;-83
2024/01/19 03:49:19;;;;;;;13.40;1.80;;;1.90;99.90;;;;;;5091517;28;20064;-80
2024/01/19 03:51:58;;;;;;;22.23;2.78;;;1.90;99.90;;;;;;5091371;28;20396;-81
2024/01/19 03:54:23;;;;;;;12.43;2.30;;;1.80;99.90;;;;;;5073074;28;20110;-81
2024/01/19 03:56:49;;;;;;;9.85;2.33;;;1.80;99.90;;;;;;5091120;28;20039;-79
2024/01/19 03:59:15;;;;;;;14.85;1.95;;;1.80;99.90;;;;;;5091431;28;20044;-82
2024/01/19 04:01:40;;;;;;;19.35;2.05;;;1.90;99.90;;;;;;5091162;28;20113;-80
2024/01/19 04:04:06;;;;;;;11.48;1.75;;;1.80;99.90;;;;;;5091101;28;20461;-83
2024/01/19 04:06:32;;;;;;;12.32;2.40;;;1.80;99.90;;;;;;5091269;28;20071;-77
2024/01/19 04:08:57;;;;;;;10.73;1.95;;;1.70;99.90;;;;;;5091096;28;20079;-80
2024/01/19 04:11:23;;;;;;;16.05;3.38;;;1.70;99.90;;;;;;5090312;28;20048;-83
2024/01/19 04:13:49;;;;;;;14.45;2.95;;;1.70;99.90;;;;;;5089742;28;20056;-81
2024/01/19 04:16:14;;;;;;;8.63;1.48;;;1.70;99.90;;;;;;5091099;28;20416;-78
2024/01/19 04:18:40;;;;;;;7.55;1.40;;;1.70;99.90;;;;;;5091190;28;20079;-79
2024/01/19 04:21:06;;;;;;;14.85;3.38;;;1.70;99.90;;;;;;5091227;28;20050;-79
2024/01/19 04:23:32;;;;;;;11.65;2.55;;;1.70;99.90;;;;;;5095293;28;20113;-82
2024/01/19 04:25:58;;;;;;;9.85;1.73;;;1.70;99.90;;;;;;5095474;28;20047;-81
2024/01/19 04:28:23;;;;;;;9.20;1.58;;;1.60;99.90;;;;;;5095772;28;20525;-80
2024/01/19 04:30:49;;;;;;;12.57;2.42;;;1.70;99.90;;;;;;5094357;28;20044;-80
2024/01/19 04:33:15;;;;;;;9.35;2.38;;;1.60;99.90;;;;;;5095593;28;20048;-83
2024/01/19 04:35:40;;;;;;;9.73;1.73;;;1.60;99.90;;;;;;5095333;28;20210;-81
2024/01/19 04:38:06;;;;;;;9.05;1.58;;;1.70;99.90;;;;;;5095181;28;20506;-82
2024/01/19 04:40:32;;;;;;;9.45;1.30;;;1.70;99.90;;;;;;5110400;28;20044;-82
2024/01/19 04:42:57;;;;;;;10.45;1.63;;;1.70;99.90;;;;;;5094946;28;20095;-79
2024/01/19 04:45:23;;;;;;;15.05;2.15;;;1.70;99.90;;;;;;5095201;28;20079;-81
2024/01/19 04:47:49;;;;;;;20.48;2.88;;;1.70;99.90;;;;;;5094925;28;20047;-78
2024/01/19 04:50:14;;;;;;;5.47;1.42;;;1.70;99.90;;;;;;5095058;28;20515;-78
2024/01/19 04:52:40;;;;;;;17.27;4.15;;;1.80;99.90;;;;;;5093769;28;20063;-76
2024/01/19 04:55:06;;;;;;;14.32;2.60;;;1.70;99.90;;;;;;5094988;28;20475;-73
2024/01/19 04:57:32;;;;;;;11.52;2.78;;;1.70;99.90;;;;;;5076199;28;20044;-80
2024/01/19 04:59:57;;;;;;;14.00;1.85;;;1.50;99.90;;;;;;5093363;28;20063;-76
2024/01/19 05:02:24;;;;;;;8.52;1.23;;;1.40;99.90;;;;;;5094568;28;20051;-77
2024/01/19 05:04:49;;;;;;;8.68;1.40;;;1.30;99.90;;;;;;5110709;28;20048;-79
2024/01/19 05:07:15;;;;;;;10.60;1.05;;;1.30;99.90;;;;;;5095069;28;20048;-78
2024/01/19 05:09:41;;;;;;;7.45;1.35;;;1.30;99.90;;;;;;5094767;28;20071;-75
2024/01/19 05:12:07;;;;;;;15.07;2.05;;;1.30;99.90;;;;;;5093023;28;20137;-74
2024/01/19 05:14:32;;;;;;;3.80;0.80;;;1.30;99.90;;;;;;5094547;28;20109;-81
2024/01/19 05:16:58;;;;;;;21.95;1.30;;;1.30;99.90;;;;;;5094538;28;20450;-79
2024/01/19 05:19:24;;;;;;;11.45;2.60;;;1.30;99.90;;;;;;5076242;28;20064;-77
2024/01/19 05:21:50;;;;;;;10.95;2.05;;;1.30;99.90;;;;;;5093296;28;20088;-79
2024/01/19 05:24:15;;;;;;;17.73;2.05;;;1.40;99.90;;;;;;5094552;28;20217;-81
2024/01/19 05:26:41;;;;;;;9.82;2.70;;;1.40;99.90;;;;;;5094334;28;20441;-79
2024/01/19 05:29:07;;;;;;;11.30;2.28;;;1.40;99.90;;;;;;5094188;28;20040;-81
2024/01/19 05:31:32;;;;;;;17.20;2.33;;;1.40;99.90;;;;;;5094240;28;20052;-81
2024/01/19 05:33:58;;;;;;;14.35;2.92;;;1.40;99.90;;;;;;5092433;28;20048;-82
2024/01/19 05:36:23;;;;;;;14.45;2.03;;;1.40;99.90;;;;;;5094315;28;20398;-80
2024/01/19 05:38:49;;;;;;;19.17;3.28;;;1.50;99.90;;;;;;5093943;28;20377;-79
2024/01/19 05:41:20;;;;;;;12.00;1.63;;;1.60;99.90;;;;;;5092310;28;20051;-81
2024/01/19 05:43:45;;;;;;;16.35;1.73;;;1.60;99.90;;;;;;5092552;28;20135;-81
2024/01/19 05:46:13;;;;;;;5.88;0.90;;;1.70;99.90;;;;;;5092508;28;20167;-78
2024/01/19 05:48:39;;;;;;;10.70;1.13;;;1.70;99.90;;;;;;5093719;28;20071;-75
2024/01/19 05:51:11;;;;;;;10.23;1.98;;;1.70;99.90;;;;;;5093830;28;20044;-77
2024/01/19 05:53:37;;;;;;;12.18;1.30;;;1.70;99.90;;;;;;5093543;28;20056;-79
2024/01/19 05:56:02;;;;;;;16.88;2.00;;;1.80;99.90;;;;;;5093523;28;20055;-80
2024/01/19 05:58:28;;;;;;;14.35;1.42;;;1.80;99.90;;;;;;5092188;28;20052;-78
2024/01/19 06:00:54;;;;;;;15.45;1.63;;;1.70;99.90;;;;;;5093636;28;20048;-78
2024/01/19 06:03:19;;;;;;;6.60;1.63;;;1.70;99.90;;;;;;5093772;28;20153;-82
2024/01/19 06:05:45;;;;;;;5.38;1.25;;;1.60;99.90;;;;;;5094137;28;20040;-80
2024/01/19 06:08:11;;;;;;;13.18;1.88;;;1.60;99.90;;;;;;5091922;28;20086;-74
2024/01/19 06:10:36;;;;;;;9.35;1.85;;;1.50;99.90;;;;;;5091827;28;20051;-74
2024/01/19 06:13:02;;;;;;;8.90;1.50;;;1.50;99.90;;;;;;5109066;28;20040;-77
2024/01/19 06:15:28;;;;;;;10.27;2.10;;;1.40;99.90;;;;;;5092931;28;20047;-74
2024/01/19 06:17:53;;;;;;;13.40;2.38;;;1.40;99.90;;;;;;5093574;28;20054;-77
2024/01/19 06:20:20;;;;;;;12.18;1.52;;;1.30;99.90;;;;;;5093315;28;20500;-74
2024/01/19 06:22:45;;;;;;;16.33;1.92;;;1.20;99.90;;;;;;5093090;28;20400;-76
2024/01/19 06:25:11;;;;;;;8.35;1.90;;;1.10;99.90;;;;;;5075183;28;20044;-79
2024/01/19 06:27:37;;;;;;;6.47;1.33;;;1.00;99.90;;;;;;5093004;28;20084;-74
2024/01/19 06:30:04;;;;;;;8.90;1.35;;;0.90;99.90;;;;;;5092968;28;20055;-77
2024/01/19 06:32:30;;;;;;;12.43;2.03;;;0.80;99.90;;;;;;5093034;28;20410;-77
2024/01/19 06:34:56;;;;;;;14.55;2.47;;;0.70;99.90;;;;;;5108126;28;20793;-75
2024/01/19 06:37:21;;;;;;;14.77;2.00;;;0.60;99.90;;;;;;5091489;28;20048;-82
2024/01/19 06:39:47;;;;;;;17.60;1.88;;;0.60;99.90;;;;;;5100021;28;20097;-74
2024/01/19 06:42:13;;;;;;;5.35;1.40;;;0.50;99.90;;;;;;5094443;28;20055;-75
2024/01/19 06:44:43;;;;;;;13.55;2.08;;;0.60;99.90;;;;;;5094003;28;20052;-80
2024/01/19 06:47:09;;;;;;;18.30;2.20;;;0.40;99.90;;;;;;5111832;28;20059;-75
2024/01/19 06:49:36;;;;;;;8.93;2.20;;;0.40;99.90;;;;;;5094544;28;20053;-75
2024/01/19 06:52:06;;;;;;;11.70;2.47;;;0.40;99.90;;;;;;5111416;28;20052;-74
2024/01/19 06:54:34;;;;;;;14.05;1.95;;;0.40;99.90;;;;;;5112903;28;20122;-76
2024/01/19 06:57:01;;;;;;;12.18;2.13;;;0.40;99.90;;;;;;5112801;28;20058;-75
2024/01/19 06:59:26;;;;;;;16.88;2.65;;;0.30;99.90;;;;;;5112738;28;20119;-76
2024/01/19 07:01:52;;;;;;;15.43;1.83;;;0.30;99.90;;;;;;5094369;28;20475;-80
2024/01/19 07:04:18;;;;;;;12.82;1.88;;;0.30;99.90;;;;;;5112932;28;20519;-81
2024/01/19 07:06:43;;;;;;;13.23;1.83;;;0.40;99.90;;;;;;5094659;28;20052;-82
2024/01/19 07:09:09;;;;;;;12.45;1.92;;;0.40;99.90;;;;;;5113049;28;20051;-82
2024/01/19 07:11:35;;;;;;;12.95;1.77;;;0.40;99.90;;;;;;5112685;28;20043;-76
2024/01/19 07:14:04;;;;;;;16.58;2.25;;;0.30;99.90;;;;;;5112542;28;20674;-78
2024/01/19 07:16:29;;;;;;;7.60;1.40;;;0.30;99.90;;;;;;5112496;28;20084;-74
2024/01/19 07:18:55;;;;;;;13.10;2.70;;;0.30;99.90;;;;;;5112684;28;20650;-78
2024/01/19 07:21:22;;;;;;;10.27;2.13;;;0.30;99.90;;;;;;5112394;28;20056;-82
2024/01/19 07:23:48;;;;;;;12.57;2.78;;;0.30;99.90;;;;;;5112367;28;20100;-83
2024/01/19 07:26:18;;;;;;;9.10;2.42;;;0.30;99.90;;;;;;5094096;28;20134;-78
2024/01/19 07:28:44;;;;;;;16.73;1.98;;;0.30;99.90;;;;;;5112138;28;20059;-75
2024/01/19 07:31:10;;;;;;;14.95;3.28;;;0.20;99.90;;;;;;5111924;28;20051;-79
2024/01/19 07:33:37;;;;;;;15.25;1.95;;;0.20;99.90;;;;;;5093539;28;20055;-76
2024/01/19 07:36:03;;;;;;;19.83;2.28;;;0.30;99.90;;;;;;5112145;28;20055;-80
2024/01/19 07:38:28;;;;;;;23.33;4.65;;;0.30;99.90;;;;;;5110872;28;20054;-81
2024/01/19 07:40:54;;;;;;;12.45;2.65;;;0.30;99.90;;;;;;5111548;28;20047;-83
2024/01/19 07:43:20;;;;;;;15.15;3.13;;;0.30;99.90;;;;;;5111855;28;20046;-81
2024/01/19 07:45:45;;;;;;;8.35;1.70;;;0.30;99.90;;;;;;5112316;28;20050;-81
2024/01/19 07:48:11;;;;;;;9.13;2.22;;;0.30;99.90;;;;;;5093501;28;20050;-80
2024/01/19 07:50:37;;;;;;;11.25;2.33;;;0.30;99.90;;;;;;5111851;28;20039;-82
2024/01/19 07:53:03;;;;;;;12.40;2.20;;;0.40;99.90;;;;;;5110997;28;20079;-82
2024/01/19 07:55:28;;;;;;;13.68;2.88;;;0.40;99.90;;;;;;5111403;28;20047;-83
2024/01/19 07:57:54;;;;;;;10.57;2.67;;;0.60;99.90;;;;;;5110441;28;20052;-83
2024/01/19 08:00:20;;;;;;;31.63;3.97;;;0.70;99.90;;;;;;5077165;28;20050;-79
2024/01/19 08:02:46;;;;;;;14.45;1.98;;;0.70;99.90;;;;;;5112223;28;20060;-81
2024/01/19 08:05:12;;;;;;;14.80;2.00;;;0.70;99.90;;;;;;5093907;28;20082;-80
2024/01/19 08:07:37;;;;;;;12.25;3.72;;;0.70;99.90;;;;;;5111702;28;20059;-77
2024/01/19 08:10:04;;;;;;;12.75;1.60;;;0.80;99.90;;;;;;5093758;28;20070;-82
2024/01/19 08:12:29;;;;;;;11.02;1.85;;;0.70;99.90;;;;;;5111475;28;20059;-80
2024/01/19 08:14:57;;;;;;;10.07;2.13;;;0.70;99.90;;;;;;5076484;28;20051;-78
2024/01/19 08:17:23;;;;;;;16.20;3.85;;;0.70;99.90;;;;;;5111702;28;20126;-82
2024/01/19 08:19:49;;;;;;;11.40;1.90;;;0.70;99.90;;;;;;5076634;28;20151;-83
2024/01/19 08:22:14;;;;;;;10.07;2.25;;;0.70;99.90;;;;;;5111494;28;20434;-78
2024/01/19 08:24:40;;;;;;;12.40;2.60;;;0.70;99.90;;;;;;5111331;28;20071;-81
2024/01/19 08:27:06;;;;;;;16.38;2.22;;;0.60;99.90;;;;;;5093206;28;20048;-80
2024/01/19 08:29:34;;;;;;;15.20;2.47;;;0.60;99.90;;;;;;5111800;28;20043;-80
2024/01/19 08:32:00;;;;;;;11.95;2.80;;;0.60;99.90;;;;;;5093607;28;20512;-80
2024/01/19 08:34:27;;;;;;;15.73;2.40;;;0.50;99.90;;;;;;5112247;28;20153;-80
2024/01/19 08:36:53;;;;;;;16.35;2.20;;;0.50;99.90;;;;;;5112110;28;20044;-81
2024/01/19 08:39:19;;;;;;;11.02;1.85;;;0.50;99.90;;;;;;5091691;28;20056;-82
2024/01/19 08:41:45;;;;;;;13.60;2.10;;;0.50;99.90;;;;;;5091355;28;20044;-79
2024/01/19 08:44:11;;;;;;;19.88;5.13;;;0.60;99.90;;;;;;5091452;28;20052;-80
2024/01/19 08:46:43;;;;;;;16.17;3.20;;;0.70;99.90;;;;;;5091541;28;20049;-82
2024/01/19 08:49:10;;;;;;;12.50;2.72;;;0.80;99.90;;;;;;5091904;28;20105;-74
2024/01/19 08:51:36;;;;;;;11.05;2.60;;;0.90;99.90;;;;;;5090914;28;20044;-74
2024/01/19 08:54:03;;;;;;;13.38;2.17;;;0.90;99.90;;;;;;5072877;28;20137;-76
2024/01/19 08:56:29;;;;;;;14.93;1.98;;;1.00;99.90;;;;;;5091288;28;20048;-75
2024/01/19 08:58:57;;;;;;;12.35;3.33;;;1.00;99.90;;;;;;5089318;28;20055;-75
2024/01/19 09:01:23;;;;;;;15.45;3.80;;;1.10;99.90;;;;;;5090685;28;20106;-73
2024/01/19 09:03:48;;;;;;;13.55;3.67;;;1.10;99.90;;;;;;5090998;28;20044;-74
2024/01/19 09:06:14;;;;;;;13.70;2.45;;;1.20;99.90;;;;;;5106353;28;20052;-81
2024/01/19 09:08:42;;;;;;;10.25;2.17;;;1.30;99.90;;;;;;5092042;28;20059;-76
2024/01/19 09:11:11;;;;;;;13.57;2.40;;;1.40;99.90;;;;;;5094463;28;20044;-74
2024/01/19 09:13:40;;;;;;;14.20;2.97;;;1.40;99.90;;;;;;5094362;28;20176;-74
2024/01/19 09:16:09;;;;;;;14.18;2.15;;;1.50;99.90;;;;;;5093169;28;20056;-76
2024/01/19 09:18:36;;;;;;;11.90;2.70;;;1.60;99.90;;;;;;5093265;28;20052;-76
2024/01/19 09:21:03;;;;;;;13.10;2.38;;;1.60;99.90;;;;;;5094343;28;20052;-76
2024/01/19 09:23:28;;;;;;;12.95;2.20;;;1.70;99.90;;;;;;5109783;28;20048;-77
2024/01/19 09:25:54;;;;;;;13.48;3.58;;;1.70;99.90;;;;;;5094236;28;20047;-81
2024/01/19 09:28:20;;;;;;;9.20;2.60;;;1.80;99.90;;;;;;5092943;28;20070;-75
2024/01/19 09:30:47;;;;;;;15.38;3.13;;;1.90;99.90;;;;;;5075732;28;20135;-73
2024/01/19 09:33:14;;;;;;;11.10;2.03;;;2.00;99.90;;;;;;5109889;28;20055;-76
2024/01/19 09:35:40;;;;;;;11.68;2.70;;;2.10;99.90;;;;;;5094164;28;20056;-75
2024/01/19 09:38:06;;;;;;;11.15;2.25;;;2.10;99.90;;;;;;5093694;28;20134;-74
2024/01/19 09:40:32;;;;;;;14.63;3.17;;;2.10;99.90;;;;;;5107219;28;20518;-72
2024/01/19 09:42:58;;;;;;;13.93;2.67;;;2.20;99.90;;;;;;5095944;28;20062;-76
2024/01/19 09:45:26;;;;;;;20.92;2.40;;;2.20;99.90;;;;;;5114406;28;20082;-82
2024/01/19 09:48:19;;;;;;;15.80;2.53;;;2.40;99.90;;;;;;5114484;28;20043;-74
2024/01/19 09:50:47;;;;;;;9.98;2.50;;;2.50;99.90;;;;;;5095557;28;20086;-74
2024/01/19 09:53:32;;;;;;;20.08;2.42;;;2.60;99.90;;;;;;5114025;28;20060;-77
2024/01/19 09:55:59;;;;;;;8.90;1.92;;;2.70;99.90;;;;;;5114293;28;20074;-76
2024/01/19 09:58:26;;;;;;;16.42;1.98;;;2.70;99.90;;;;;;5114238;28;20055;-74
2024/01/19 10:00:53;;;;;;;18.67;2.13;;;2.80;99.90;;;;;;5113713;28;20564;-77
2024/01/19 10:03:19;;;;;;;10.02;2.08;;;2.90;99.90;;;;;;5112381;28;20056;-75
2024/01/19 10:05:45;;;;;;;14.35;2.78;;;2.90;99.90;;;;;;5095348;28;20746;-83
2024/01/19 10:08:13;;;;;;;10.85;1.70;;;3.00;99.90;;;;;;5114150;28;20535;-82
2024/01/19 10:10:42;;;;;;;11.48;2.15;;;3.10;99.90;;;;;;5114159;28;20043;-76
2024/01/19 10:13:09;;;;;;;10.73;2.67;;;3.20;99.90;;;;;;5113590;28;20100;-77
2024/01/19 10:15:34;;;;;;;14.38;1.95;;;3.30;99.90;;;;;;5113795;28;20051;-82
2024/01/19 10:18:01;;;;;;;9.55;1.73;;;3.40;99.90;;;;;;5113654;28;20052;-77
2024/01/19 10:20:27;;;;;;;12.82;3.50;;;3.50;99.90;;;;;;5094399;28;20078;-73
2024/01/19 10:22:53;;;;;;;18.17;2.88;;;3.70;99.90;;;;;;5094864;28;20052;-75
2024/01/19 10:25:19;;;;;;;9.40;2.05;;;3.80;99.90;;;;;;5113694;28;20040;-80
2024/01/19 10:27:51;;;;;;;14.98;2.30;;;3.80;99.90;;;;;;5113522;28;20463;-81
2024/01/19 10:30:30;;;;;;;13.75;2.03;;;3.90;99.90;;;;;;5113801;28;20040;-75
2024/01/19 10:33:06;;;;;;;12.57;1.80;;;4.20;99.90;;;;;;5113415;28;20116;-74
2024/01/19 10:35:32;;;;;;;13.23;3.05;;;4.50;99.90;;;;;;5113738;28;20091;-76
2024/01/19 10:38:06;;;;;;;14.98;2.10;;;4.70;99.90;;;;;;5095044;28;20550;-75
2024/01/19 10:40:34;;;;;;;19.33;2.05;;;5.10;99.90;;;;;;5113143;28;20047;-76
2024/01/19 10:43:00;;;;;;;9.38;1.92;;;5.10;99.90;;;;;;5094902;28;20051;-79
2024/01/19 10:45:28;;;;;;;10.15;1.77;;;5.10;99.90;;;;;;5113608;28;20044;-75
2024/01/19 10:48:03;;;;;;;12.85;1.92;;;4.90;99.90;;;;;;5112283;28;20043;-79
2024/01/19 10:50:30;;;;;;;15.48;1.65;;;5.10;99.90;;;;;;5113336;28;20051;-75
2024/01/19 10:53:10;;;;;;;14.15;1.83;;;5.30;99.90;;;;;;5095371;28;20059;-75
2024/01/19 10:55:36;;;;;;;9.75;1.40;;;5.00;99.90;;;;;;5113306;28;20137;-75
2024/01/19 10:58:04;;;;;;;11.43;2.22;;;4.90;99.90;;;;;;5113006;28;20073;-81
2024/01/19 11:00:30;;;;;;;14.35;2.22;;;5.00;99.90;;;;;;5094857;28;20507;-81
2024/01/19 11:02:56;;;;;;;6.63;1.52;;;5.30;99.90;;;;;;5113450;28;20055;-76
2024/01/19 11:05:22;;;;;;;16.73;3.10;;;5.50;99.90;;;;;;5078079;28;20048;-77
2024/01/19 11:07:53;;;;;;;7.60;1.45;;;5.70;99.90;;;;;;5113614;28;20044;-76
2024/01/19 11:10:20;;;;;;;8.80;2.22;;;5.90;99.90;;;;;;5094838;28;20139;-77
2024/01/19 11:12:57;;;;;;;14.80;3.20;;;6.00;99.90;;;;;;5112896;28;20063;-75
2024/01/19 11:15:40;;;;;;;10.80;1.40;;;6.30;99.90;;;;;;5113598;28;20072;-80
2024/01/19 11:18:07;;;;;;;5.88;1.80;;;6.50;99.90;;;;;;5113544;28;20059;-80
2024/01/19 11:20:33;;;;;;;17.95;2.55;;;6.50;99.90;;;;;;5117721;28;20085;-78
2024/01/19 11:23:01;;;;;;;13.52;1.60;;;6.60;99.90;;;;;;5113930;28;20093;-79
2024/01/19 11:25:55;;;;;;;12.48;3.03;;;6.60;99.90;;;;;;5115739;28;20043;-80
2024/01/19 11:28:38;;;;;;;10.20;1.20;;;6.40;99.90;;;;;;5114388;28;20044;-82
2024/01/19 11:31:15;;;;;;;9.52;2.60;;;6.40;99.90;;;;;;5095439;28;20132;-79
2024/01/19 11:33:41;;;;;;;5.80;1.63;;;6.50;99.90;;;;;;5117957;28;20051;-75
2024/01/19 11:36:07;;;;;;;8.55;2.17;;;6.50;99.90;;;;;;5120698;28;20495;-77
2024/01/19 11:38:48;;;;;;;11.18;1.70;;;6.50;99.90;;;;;;5122492;28;20058;-73
2024/01/19 11:41:32;;;;;;;6.90;1.30;;;6.00;99.90;;;;;;5120871;28;20090;-75
2024/01/19 11:43:59;;;;;;;15.00;1.58;;;6.20;99.90;;;;;;5121101;28;20051;-78
2024/01/19 11:46:50;;;;;;;12.23;2.10;;;6.50;99.90;;;;;;5119888;28;20047;-74
2024/01/19 11:49:35;;;;;;;11.45;1.90;;;6.50;99.90;;;;;;5121339;28;20112;-76
2024/01/19 11:52:01;;;;;;;;;;;6.60;99.90;;;;;;5103489;28;20086;-78
2024/01/19 11:54:29;;;;;;;9.63;1.95;;;7.10;99.90;;;;;;5101992;28;19958;-76
2024/01/19 11:57:15;;;;;;;9.00;1.73;;;7.60;99.90;;;;;;5122572;28;20050;-74
2024/01/19 11:59:40;;;;;;;9.27;2.50;;;7.80;99.90;;;;;;5091430;28;20087;-79
2024/01/19 12:02:06;;;;;;;8.18;1.48;;;8.00;99.90;;;;;;5112123;28;20118;-78
2024/01/19 12:04:36;;;;;;;16.40;2.90;;;7.90;99.90;;;;;;5112793;28;20109;-74
2024/01/19 12:07:03;;;;;;;10.32;1.73;;;8.30;99.90;;;;;;5111666;28;20082;-77
2024/01/19 12:09:29;;;;;;;11.93;1.75;;;8.60;99.90;;;;;;5111621;28;20055;-77
2024/01/19 12:11:58;;;;;;;9.95;1.75;;;8.40;99.90;;;;;;5111598;28;20051;-76
2024/01/19 12:14:24;;;;;;;15.70;2.20;;;8.60;99.90;;;;;;5111562;28;20048;-74
2024/01/19 12:16:50;;;;;;;6.05;1.50;;;8.70;99.90;;;;;;5111738;28;20052;-77
2024/01/19 12:19:16;;;;;;;7.40;1.42;;;8.80;99.90;;;;;;5111702;28;20372;-79
2024/01/19 12:21:42;;;;;;;13.15;2.47;;;9.00;99.90;;;;;;5111847;28;20040;-77
2024/01/19 12:24:07;;;;;;;8.90;1.88;;;8.90;99.90;;;;;;5112248;28;20058;-79
2024/01/19 12:26:34;;;;;;;8.15;1.38;;;9.10;99.90;;;;;;5092920;28;20051;-75
2024/01/19 12:29:00;;;;;;;5.97;1.50;;;9.30;99.90;;;;;;5111643;28;20079;-81
2024/01/19 12:31:36;;;;;;;13.52;2.20;;;9.30;99.90;;;;;;5111323;28;20152;-79
2024/01/19 12:34:12;;;;;;;7.80;2.20;;;9.30;99.90;;;;;;5110339;28;20043;-76
2024/01/19 12:36:39;;;;;;;9.93;1.88;;;9.20;99.90;;;;;;5111441;28;20483;-79
2024/01/19 12:39:10;;;;;;;8.38;1.38;;;9.00;99.80;;;;;;5111217;28;20534;-80
2024/01/19 12:41:40;;;;;;;14.25;1.40;;;9.30;99.90;;;;;;5111647;28;20130;-75
2024/01/19 12:44:06;;;;;;;9.93;1.63;;;9.30;99.90;;;;;;5114891;28;20044;-77
2024/01/19 12:46:32;;;;;;;6.65;1.33;;;9.10;99.90;;;;;;5097514;28;20052;-74
2024/01/19 12:49:02;;;;;;;8.52;1.52;;;9.00;99.90;;;;;;5115671;28;20403;-78